Time;durP1;ratioP1;P1;durP2;ratioP2;P2;SDS_P1;SDS_P2;PMS_P1;PMS_P2;Temp;Humidity;BMP_temperature;BMP_pressure;BME280_temperature;BME280_humidity;BME280_pressure;Samples;Min_cycle;Max_cycle;Signal;HPM_P1;HPM_P2
2022/09/21 00:00:52;;;;;;;3.83;2.85;;;19.10;99.90;;;18.91;70.19;99028.53;5097296;27;20483;-77
2022/09/21 00:03:29;;;;;;;3.70;3.10;;;19.00;99.90;;;18.87;70.11;99031.09;5092392;28;20039;-77
2022/09/21 00:06:12;;;;;;;3.05;2.72;;;19.00;99.90;;;18.92;69.71;99040.34;5107004;27;20135;-77
2022/09/21 00:08:38;;;;;;;4.43;3.15;;;19.00;99.90;;;18.91;69.52;99030.47;5091276;28;20035;-76
2022/09/21 00:11:04;;;;;;;4.97;3.20;;;18.90;99.90;;;18.88;69.69;99031.94;5095978;27;20035;-76
2022/09/21 00:13:32;;;;;;;6.88;3.63;;;18.90;99.90;;;18.94;69.90;99030.63;5089245;27;20398;-77
2022/09/21 00:15:58;;;;;;;4.22;3.15;;;18.90;99.90;;;18.90;70.49;99028.84;5107988;27;20062;-77
2022/09/21 00:18:25;;;;;;;3.72;2.65;;;19.00;99.90;;;18.86;70.15;99029.50;5063080;28;20035;-77
2022/09/21 00:20:54;;;;;;;5.57;2.95;;;19.00;99.90;;;18.87;70.01;99031.09;5093668;28;20039;-76
2022/09/21 00:23:20;;;;;;;4.70;3.20;;;18.90;99.90;;;18.91;69.37;99038.72;5112213;27;20061;-76
2022/09/21 00:25:46;;;;;;;3.65;2.92;;;18.90;99.90;;;18.87;69.45;99027.56;5093671;27;20036;-77
2022/09/21 00:28:12;;;;;;;6.20;3.45;;;18.90;99.90;;;18.89;69.75;99035.50;5090771;28;20398;-77
2022/09/21 00:30:38;;;;;;;4.47;2.88;;;18.90;99.90;;;18.89;70.07;99036.28;5079171;28;20037;-77
2022/09/21 00:33:04;;;;;;;5.53;2.63;;;19.00;99.90;;;18.89;70.15;99040.97;5109785;28;20092;-77
2022/09/21 00:35:30;;;;;;;3.72;2.85;;;18.90;99.90;;;18.89;69.73;99039.03;5067857;28;20046;-77
2022/09/21 00:38:01;;;;;;;4.43;3.22;;;18.90;99.90;;;18.88;69.72;99037.44;5082235;28;20119;-77
2022/09/21 00:40:27;;;;;;;4.28;3.15;;;18.90;99.90;;;18.89;69.52;99041.78;5110767;28;20115;-77
2022/09/21 00:42:53;;;;;;;3.70;2.42;;;18.90;99.90;;;18.86;69.50;99048.75;5093491;28;20040;-77
2022/09/21 00:45:22;;;;;;;4.55;2.75;;;18.90;99.90;;;18.84;70.12;99048.25;5110992;28;20043;-77
2022/09/21 00:47:50;;;;;;;4.68;2.85;;;18.90;99.90;;;18.87;70.09;99047.59;5095430;28;20047;-77
2022/09/21 00:50:19;;;;;;;3.38;2.92;;;18.90;99.90;;;18.84;70.27;99048.25;5108394;28;20043;-76
2022/09/21 00:52:52;;;;;;;3.00;2.47;;;18.90;99.90;;;18.86;69.67;99056.97;5085440;28;20123;-76
2022/09/21 00:55:43;;;;;;;4.10;2.97;;;18.90;99.90;;;18.85;69.76;99054.53;5077232;28;20031;-76
2022/09/21 00:58:14;;;;;;;4.47;3.10;;;18.90;99.90;;;18.85;69.50;99049.06;5105209;28;20052;-77
2022/09/21 01:00:42;;;;;;;3.72;2.85;;;18.90;99.90;;;18.85;69.72;99055.38;5075764;28;20044;-77
2022/09/21 01:03:08;;;;;;;2.97;2.35;;;18.90;99.90;;;18.83;70.23;99045.84;5086742;28;20051;-76
2022/09/21 01:05:34;;;;;;;5.35;3.45;;;18.90;99.90;;;18.83;70.37;99043.91;5091369;27;20031;-76
2022/09/21 01:08:01;;;;;;;4.18;3.30;;;18.90;99.90;;;18.81;69.97;99048.91;5099251;27;20049;-77
2022/09/21 01:10:29;;;;;;;3.00;2.67;;;18.90;99.90;;;18.83;69.57;99045.84;5077021;27;20530;-77
2022/09/21 01:13:12;;;;;;;3.25;2.47;;;18.90;99.90;;;18.82;69.65;99049.69;5072607;27;20043;-77
2022/09/21 01:16:03;;;;;;;3.25;2.63;;;18.90;99.90;;;18.81;69.47;99054.41;5110560;27;20051;-77
2022/09/21 01:18:40;;;;;;;3.97;2.27;;;18.90;99.90;;;18.82;70.36;99045.00;5112359;27;20114;-77
2022/09/21 01:21:25;;;;;;;3.53;2.42;;;18.80;99.90;;;18.84;69.99;99061.19;5075462;27;20519;-77
2022/09/21 01:23:57;;;;;;;4.43;2.83;;;18.90;99.90;;;18.81;70.06;99048.91;5112104;27;20152;-77
2022/09/21 01:26:35;;;;;;;3.25;2.45;;;18.80;99.90;;;18.82;69.67;99057.94;5109967;27;20035;-77
2022/09/21 01:29:32;;;;;;;4.03;2.83;;;18.80;99.90;;;18.81;69.66;99056.34;5108284;27;20032;-77
2022/09/21 01:32:19;;;;;;;2.83;2.42;;;18.90;99.90;;;18.82;69.65;99061.50;5113628;27;20044;-77
2022/09/21 01:35:16;;;;;;;4.93;3.17;;;18.90;99.90;;;18.81;70.24;99061.84;5113446;27;20036;-77
2022/09/21 01:37:58;;;;;;;6.53;3.13;;;18.90;99.90;;;18.80;70.31;99058.28;5076867;27;20481;-77
2022/09/21 01:40:32;;;;;;;3.35;2.72;;;18.90;99.90;;;18.81;69.80;99059.88;5064033;28;20402;-77
2022/09/21 01:42:58;;;;;;;2.67;2.33;;;18.90;99.90;;;18.79;69.67;99055.84;5099579;27;20075;-77
2022/09/21 01:45:31;;;;;;;6.05;3.42;;;18.90;99.90;;;18.80;69.91;99055.53;5076238;28;20513;-77
2022/09/21 01:48:00;;;;;;;3.08;2.58;;;18.80;99.90;;;18.77;69.62;99067.16;5076591;28;20050;-77
2022/09/21 01:50:30;;;;;;;4.75;2.47;;;18.80;99.90;;;18.80;70.10;99063.78;5093788;28;20044;-77
2022/09/21 01:53:33;;;;;;;4.15;2.88;;;18.90;99.90;;;18.79;70.46;99067.63;5079647;28;20051;-77
2022/09/21 01:56:12;;;;;;;4.55;3.08;;;18.90;99.90;;;18.80;70.02;99063.78;5090246;27;20055;-77
2022/09/21 01:58:52;;;;;;;2.55;2.35;;;18.90;99.90;;;18.79;70.07;99070.38;5093814;27;20166;-77
2022/09/21 02:01:20;;;;;;;4.15;2.50;;;18.80;99.90;;;18.76;69.81;99070.22;5093821;27;20107;-77
2022/09/21 02:04:01;;;;;;;2.58;2.08;;;18.80;99.90;;;18.76;69.67;99062.78;5093985;27;20083;-77
2022/09/21 02:06:27;;;;;;;7.55;3.13;;;18.80;99.90;;;18.79;70.04;99064.09;5084671;27;20126;-77
2022/09/21 02:08:53;;;;;;;6.63;3.70;;;18.80;99.90;;;18.80;70.15;99062.94;5094644;27;20047;-77
2022/09/21 02:11:20;;;;;;;9.13;4.68;;;18.80;99.90;;;18.77;70.07;99067.16;5091170;27;20042;-77
2022/09/21 02:13:47;;;;;;;5.07;3.35;;;18.80;99.90;;;18.79;69.70;99067.63;5096281;27;20048;-77
2022/09/21 02:16:48;;;;;;;5.57;3.58;;;18.80;99.90;;;18.76;69.86;99072.97;5079625;27;20040;-77
2022/09/21 02:19:26;;;;;;;4.72;3.38;;;18.80;99.90;;;18.77;69.87;99072.63;5094779;28;20111;-77
2022/09/21 02:22:08;;;;;;;12.77;4.80;;;18.80;99.90;;;18.78;70.08;99078.97;5088117;27;20538;-77
2022/09/21 02:24:46;;;;;;;6.25;4.40;;;18.80;99.90;;;18.78;70.15;99071.53;5098488;27;20541;-77
2022/09/21 02:27:21;;;;;;;12.82;5.30;;;18.80;99.90;;;18.79;69.75;99070.38;5094499;28;20490;-77
2022/09/21 02:30:04;;;;;;;8.15;4.43;;;18.80;99.90;;;18.78;69.67;99078.97;5110830;27;20079;-77
2022/09/21 02:32:40;;;;;;;7.20;4.72;;;18.80;99.90;;;18.79;69.55;99066.84;5110747;27;20059;-77
2022/09/21 02:35:40;;;;;;;8.50;4.95;;;18.80;99.90;;;18.76;69.60;99072.97;5094160;27;20040;-77
2022/09/21 02:38:15;;;;;;;15.32;6.38;;;18.80;99.90;;;18.78;69.86;99071.53;5095631;27;20119;-77
2022/09/21 02:40:55;;;;;;;13.70;5.97;;;18.80;99.90;;;18.79;70.28;99073.13;5104770;27;20040;-77
2022/09/21 02:43:31;;;;;;;12.40;6.32;;;18.90;99.90;;;18.80;69.69;99074.78;5097206;27;20047;-77
2022/09/21 02:46:14;;;;;;;12.77;5.60;;;18.90;99.90;;;18.78;69.42;99076.22;5113703;27;20048;-77
2022/09/21 02:48:47;;;;;;;12.88;6.18;;;18.80;99.90;;;18.81;69.36;99081.88;5094040;28;20441;-77
2022/09/21 02:51:18;;;;;;;12.43;5.07;;;18.80;99.90;;;18.81;69.09;99079.13;5082781;27;20049;-77
2022/09/21 02:53:44;;;;;;;10.57;5.27;;;18.90;99.90;;;18.78;69.44;99074.28;5095484;27;20046;-77
2022/09/21 02:56:10;;;;;;;15.05;6.05;;;18.90;99.90;;;18.81;69.67;99081.88;5062910;27;20028;-77
2022/09/21 02:58:44;;;;;;;11.05;6.38;;;18.90;99.90;;;18.80;69.74;99080.28;5074690;27;20054;-77
2022/09/21 03:01:11;;;;;;;11.55;5.80;;;18.90;99.90;;;18.83;69.28;99073.31;5080763;27;20054;-77
2022/09/21 03:03:37;;;;;;;19.20;6.90;;;18.90;99.90;;;18.79;69.17;99081.38;5091566;27;20411;-76
2022/09/21 03:06:03;;;;;;;11.50;5.75;;;18.90;99.90;;;18.81;69.15;99076.38;5107458;27;20054;-76
2022/09/21 03:08:29;;;;;;;13.43;5.35;;;18.80;99.90;;;18.80;69.11;99080.28;5088080;27;20740;-76
2022/09/21 03:10:56;;;;;;;9.57;5.53;;;18.80;99.90;;;18.81;69.28;99084.63;5094603;27;20036;-76
2022/09/21 03:13:23;;;;;;;21.50;7.72;;;18.80;99.90;;;18.80;69.57;99088.50;5111066;27;20096;-76
2022/09/21 03:15:49;;;;;;;17.65;6.57;;;18.90;99.90;;;18.82;69.26;99088.19;5107494;27;20053;-77
2022/09/21 03:18:15;;;;;;;17.75;7.25;;;18.80;99.90;;;18.81;69.04;99083.81;5114080;27;20135;-76
2022/09/21 03:20:47;;;;;;;14.02;6.18;;;18.90;99.90;;;18.83;68.82;99093.38;5106185;27;20051;-76
2022/09/21 03:23:13;;;;;;;11.57;6.13;;;18.90;99.90;;;18.82;69.01;99093.66;5109780;27;20065;-76
2022/09/21 03:25:41;;;;;;;12.93;6.85;;;18.90;99.90;;;18.82;69.09;99088.19;5088466;27;20044;-76
2022/09/21 03:28:08;;;;;;;16.20;7.00;;;18.80;99.90;;;18.82;69.11;99088.97;5076725;27;20039;-76
2022/09/21 03:30:34;;;;;;;13.43;6.30;;;18.90;99.90;;;18.80;69.52;99096.75;5109848;27;20472;-77
2022/09/21 03:33:00;;;;;;;15.90;7.18;;;18.90;99.90;;;18.81;69.07;99098.38;5083733;27;20047;-77
2022/09/21 03:35:26;;;;;;;14.13;6.82;;;18.90;99.90;;;18.83;68.94;99098.06;5092034;28;20078;-76
2022/09/21 03:37:53;;;;;;;12.73;6.35;;;18.90;99.90;;;18.83;68.68;99096.09;5091955;27;20180;-75
2022/09/21 03:40:20;;;;;;;17.02;7.10;;;18.90;99.90;;;18.82;69.01;99101.91;5092514;28;20039;-76
2022/09/21 03:42:46;;;;;;;14.20;6.80;;;18.90;99.90;;;18.84;69.10;99107.91;5093794;28;20399;-76
2022/09/21 03:45:12;;;;;;;12.88;6.60;;;18.90;99.90;;;18.84;69.15;99108.72;5108148;27;20047;-76
2022/09/21 03:47:38;;;;;;;14.45;7.07;;;19.00;99.90;;;18.82;69.17;99110.97;5089654;28;20061;-75
2022/09/21 03:50:09;;;;;;;15.10;6.57;;;18.90;99.90;;;18.84;69.04;99118.91;5074952;28;20065;-75
2022/09/21 03:52:36;;;;;;;13.30;5.78;;;18.90;99.90;;;18.81;68.84;99111.31;5076829;28;20770;-76
2022/09/21 03:55:05;;;;;;;10.93;6.57;;;18.90;99.90;;;18.83;67.57;99111.78;5104060;27;20558;-75
2022/09/21 03:57:38;;;;;;;12.10;6.38;;;18.90;99.90;;;18.85;66.98;99121.34;5092882;28;20040;-75
2022/09/21 04:00:08;;;;;;;12.68;6.80;;;18.90;99.90;;;18.84;66.89;99116.97;5105883;27;20032;-75
2022/09/21 04:02:36;;;;;;;12.02;6.30;;;18.90;99.90;;;18.84;67.29;99127.16;5074470;28;20067;-75
2022/09/21 04:05:02;;;;;;;13.40;6.13;;;18.90;99.90;;;18.83;68.22;99131.84;5095632;27;20059;-76
2022/09/21 04:07:34;;;;;;;10.50;6.53;;;18.90;99.90;;;18.85;68.20;99137.00;5091204;27;20031;-75
2022/09/21 04:10:04;;;;;;;12.73;5.63;;;18.90;99.90;;;18.81;67.25;99136.84;5074613;27;20043;-76
2022/09/21 04:12:35;;;;;;;12.33;7.00;;;19.00;99.90;;;18.83;67.03;99142.03;5072962;27;20047;-75
2022/09/21 04:15:01;;;;;;;12.07;6.68;;;18.90;99.90;;;18.82;66.41;99138.44;5088627;28;20096;-76
2022/09/21 04:17:28;;;;;;;13.52;6.55;;;18.90;99.90;;;18.83;66.30;99144.78;5073151;28;20048;-76
2022/09/21 04:19:54;;;;;;;12.15;6.32;;;18.90;99.90;;;18.84;67.23;99141.69;5071078;28;20475;-75
2022/09/21 04:22:23;;;;;;;11.52;6.50;;;18.90;99.90;;;18.83;67.48;99142.84;5108803;28;20519;-75
2022/09/21 04:24:49;;;;;;;10.88;5.78;;;18.90;99.90;;;18.83;67.66;99144.78;5105027;27;20044;-75
2022/09/21 04:27:17;;;;;;;11.75;6.88;;;18.90;99.90;;;18.83;66.35;99145.59;5106611;28;20032;-76
2022/09/21 04:29:43;;;;;;;11.52;6.72;;;19.00;99.90;;;18.85;66.10;99148.81;5108800;27;20455;-75
2022/09/21 04:32:10;;;;;;;10.98;5.97;;;19.00;99.90;;;18.85;65.75;99148.00;5095315;28;20140;-75
2022/09/21 04:34:38;;;;;;;9.48;5.60;;;18.90;99.90;;;18.87;65.85;99154.78;5089605;28;20046;-75
2022/09/21 04:37:07;;;;;;;13.25;6.72;;;18.90;99.90;;;18.83;66.97;99151.06;5082706;28;20475;-75
2022/09/21 04:39:33;;;;;;;13.30;6.00;;;18.90;99.90;;;18.83;67.03;99147.53;5084431;28;20062;-75
2022/09/21 04:42:00;;;;;;;9.60;5.85;;;19.00;99.90;;;18.80;66.77;99154.47;5106204;27;20104;-75
2022/09/21 04:44:27;;;;;;;7.95;5.10;;;18.90;99.90;;;18.85;66.16;99146.06;5096956;27;20040;-75
2022/09/21 04:46:53;;;;;;;10.18;5.65;;;18.90;99.90;;;18.84;65.60;99158.19;5112159;27;20044;-75
2022/09/21 04:49:19;;;;;;;6.95;5.25;;;18.90;99.90;;;18.84;65.36;99152.69;5104507;27;20259;-75
2022/09/21 04:51:45;;;;;;;9.82;6.07;;;18.90;99.90;;;18.85;65.94;99146.06;5108346;27;20089;-75
2022/09/21 04:54:11;;;;;;;9.18;4.85;;;18.90;99.90;;;18.84;66.40;99149.94;5104974;27;20104;-75
2022/09/21 04:56:37;;;;;;;10.50;5.68;;;18.90;99.90;;;18.85;66.78;99156.25;5069607;27;20134;-75
2022/09/21 04:59:03;;;;;;;9.13;6.00;;;19.00;99.90;;;18.83;65.88;99151.06;5089651;27;20098;-75
2022/09/21 05:01:29;;;;;;;7.72;5.65;;;19.00;99.90;;;18.81;65.70;99147.84;5091162;27;20115;-78
2022/09/21 05:04:00;;;;;;;8.02;5.07;;;19.00;99.90;;;18.81;65.36;99144.28;5075656;27;20063;-75
2022/09/21 05:06:30;;;;;;;9.23;5.45;;;18.90;99.90;;;18.84;64.98;99147.19;5108155;27;20040;-79
2022/09/21 05:11:41;;;;;;;10.93;5.72;;;18.90;99.90;;;18.81;66.48;99150.59;5092704;27;20131;-79
2022/09/21 05:14:07;;;;;;;10.27;6.15;;;18.90;99.90;;;18.82;66.21;99154.94;5075440;28;20118;-79
2022/09/21 05:16:33;;;;;;;7.85;4.80;;;18.90;99.90;;;18.79;66.16;99150.09;5072935;28;20130;-79
2022/09/21 05:19:00;;;;;;;9.30;5.82;;;18.90;99.90;;;18.86;65.17;99158.69;5073052;28;20036;-78
2022/09/21 05:21:26;;;;;;;10.73;5.82;;;18.90;99.90;;;18.84;64.92;99158.19;5075301;27;20055;-78
2022/09/21 05:23:52;;;;;;;8.15;4.90;;;18.90;99.90;;;18.85;65.46;99165.31;5112231;27;20556;-78
2022/09/21 05:26:19;;;;;;;9.13;5.05;;;18.90;99.90;;;18.83;65.95;99167.56;5075559;27;20049;-78
2022/09/21 05:28:45;;;;;;;8.60;5.03;;;18.90;99.90;;;18.86;66.22;99160.63;5075809;27;20040;-78
2022/09/21 05:31:17;;;;;;;8.25;5.13;;;19.00;99.90;;;18.84;65.32;99171.94;5074712;27;20418;-78
2022/09/21 05:34:15;;;;;;;9.57;5.40;;;19.00;99.90;;;18.86;64.82;99174.38;5108495;27;20561;-78
2022/09/21 05:37:26;;;;;;;8.75;5.55;;;19.00;99.90;;;18.82;64.74;99182.41;5104982;27;20786;-78
2022/09/21 05:39:53;;;;;;;8.02;5.22;;;18.90;99.90;;;18.81;65.27;99177.25;5047538;28;20041;-78
2022/09/21 05:42:19;;;;;;;9.77;5.90;;;18.90;99.90;;;18.87;65.24;99179.53;5034314;28;20064;-78
2022/09/21 05:44:48;;;;;;;9.52;6.03;;;19.00;99.90;;;18.86;65.37;99186.16;5053104;28;20135;-78
2022/09/21 05:47:46;;;;;;;12.77;6.25;;;19.00;99.90;;;18.83;64.86;99183.25;5072994;28;20036;-78
2022/09/21 05:50:24;;;;;;;7.53;4.72;;;18.90;99.90;;;18.85;64.47;99181.81;5102519;27;20035;-78
2022/09/21 05:53:18;;;;;;;7.82;5.50;;;18.90;99.90;;;18.87;64.97;99181.47;5107677;27;20366;-78
2022/09/21 05:55:56;;;;;;;9.57;5.95;;;18.90;99.90;;;18.89;65.04;99186.66;5107038;27;20174;-78
2022/09/21 05:58:22;;;;;;;7.55;5.57;;;18.90;99.90;;;18.89;64.81;99192.16;5101138;27;20598;-78
2022/09/21 06:01:37;;;;;;;11.68;5.47;;;19.00;99.90;;;18.87;64.96;99190.50;5109495;27;20118;-78
2022/09/21 06:04:04;;;;;;;7.65;5.07;;;19.00;99.90;;;18.95;64.94;99193.63;5024284;27;20135;-78
2022/09/21 06:06:30;;;;;;;10.82;5.75;;;19.00;99.90;;;18.99;64.86;99194.59;5076333;27;20036;-78
2022/09/21 06:08:56;;;;;;;8.85;5.22;;;19.10;99.90;;;18.94;64.89;99201.06;5094720;27;20641;-78
2022/09/21 06:11:22;;;;;;;7.57;4.68;;;19.10;99.90;;;18.94;64.63;99206.56;5080879;28;20639;-79
2022/09/21 06:13:48;;;;;;;6.47;4.32;;;19.10;99.90;;;18.95;64.82;99199.91;5077091;27;20517;-79
2022/09/21 06:16:14;;;;;;;7.55;5.32;;;19.10;99.90;;;19.00;64.61;99198.97;5108447;27;20032;-79
2022/09/21 06:18:41;;;;;;;9.45;5.60;;;19.10;99.90;;;19.00;64.40;99199.75;5088025;27;20126;-79
2022/09/21 06:21:07;;;;;;;8.85;5.07;;;19.10;99.90;;;19.06;65.07;99200.44;5073081;27;20381;-79
2022/09/21 06:23:33;;;;;;;7.13;4.57;;;19.10;99.90;;;19.07;64.46;99196.56;5075226;27;20059;-79
2022/09/21 06:25:59;;;;;;;9.45;5.53;;;19.10;99.90;;;19.08;64.42;99198.16;5072248;27;20044;-78
2022/09/21 06:28:26;;;;;;;7.13;5.55;;;19.10;99.90;;;19.11;64.33;99203.06;5083179;27;20042;-78
2022/09/21 06:30:53;;;;;;;7.60;5.00;;;19.10;99.90;;;19.14;64.35;99198.84;5074249;27;20541;-78
2022/09/21 06:33:22;;;;;;;8.50;5.88;;;19.20;99.90;;;19.15;64.34;99206.75;5089665;28;20123;-78
2022/09/21 06:35:58;;;;;;;8.77;5.45;;;19.20;99.90;;;19.19;64.14;99206.94;5091540;28;20421;-78
2022/09/21 06:38:26;;;;;;;8.55;5.18;;;19.20;99.90;;;19.20;64.12;99197.56;5090290;27;20728;-78
2022/09/21 06:40:52;;;;;;;8.55;5.97;;;19.20;99.90;;;19.21;64.09;99196.41;5090836;27;20512;-78
2022/09/21 06:43:18;;;;;;;5.82;4.68;;;19.30;99.90;;;19.27;63.98;99186.91;5091227;27;20039;-78
2022/09/21 06:45:53;;;;;;;7.13;4.97;;;19.30;99.90;;;19.22;63.97;99201.59;5073703;28;20473;-78
2022/09/21 06:48:19;;;;;;;6.03;4.57;;;19.20;99.90;;;19.28;63.74;99203.09;5073877;27;20036;-78
2022/09/21 06:50:45;;;;;;;7.75;5.05;;;19.30;99.90;;;19.34;63.66;99208.44;5105374;27;20442;-78
2022/09/21 06:53:11;;;;;;;5.90;4.55;;;19.30;99.90;;;19.36;63.77;99215.22;5068153;27;20058;-78
2022/09/21 06:55:37;;;;;;;7.00;5.15;;;19.30;99.90;;;19.40;63.25;99207.94;5092354;27;20152;-78
2022/09/21 06:58:04;;;;;;;7.75;5.10;;;19.40;99.90;;;19.41;63.33;99219.75;5088264;27;20186;-78
2022/09/21 07:00:30;;;;;;;6.75;4.30;;;19.40;99.90;;;19.44;63.31;99219.13;5069498;27;20115;-78
2022/09/21 07:02:56;;;;;;;7.80;5.35;;;19.40;99.90;;;19.45;63.20;99215.22;5091743;27;20039;-78
2022/09/21 07:05:23;;;;;;;4.55;4.15;;;19.40;99.90;;;19.49;63.30;99224.47;5093182;27;20530;-78
2022/09/21 07:07:49;;;;;;;9.57;5.15;;;19.50;99.90;;;19.51;63.15;99220.25;5090532;27;20043;-78
2022/09/21 07:10:15;;;;;;;5.55;4.38;;;19.50;99.90;;;19.56;62.84;99230.28;5090698;27;20043;-78
2022/09/21 07:12:42;;;;;;;7.65;4.75;;;19.50;99.90;;;19.61;62.75;99223.81;5074053;27;20040;-78
2022/09/21 07:15:09;;;;;;;7.93;5.00;;;19.50;99.90;;;19.64;62.53;99229.50;5073023;27;20067;-78
2022/09/21 07:17:37;;;;;;;8.40;5.38;;;19.50;99.90;;;19.67;62.42;99228.06;5077054;27;20036;-78
2022/09/21 07:20:06;;;;;;;8.93;4.80;;;19.60;99.90;;;19.69;62.31;99234.88;5086631;27;20035;-78
2022/09/21 07:22:32;;;;;;;5.18;4.50;;;19.60;99.90;;;19.71;62.31;99234.53;5073774;27;20063;-78
2022/09/21 07:24:58;;;;;;;5.80;4.90;;;19.60;99.90;;;19.69;62.51;99234.88;5077328;28;20152;-78
2022/09/21 07:27:27;;;;;;;7.68;4.72;;;19.60;99.90;;;19.69;62.51;99234.88;5060207;27;20111;-78
2022/09/21 07:29:53;;;;;;;5.78;4.18;;;19.60;99.90;;;19.70;62.54;99241.97;5100934;27;20414;-78
2022/09/21 07:32:19;;;;;;;6.25;4.63;;;19.60;99.90;;;19.70;62.59;99233.72;5086562;27;20040;-78
2022/09/21 07:34:45;;;;;;;9.85;5.18;;;19.70;99.90;;;19.72;62.60;99245.22;5071118;28;20051;-78
2022/09/21 07:37:12;;;;;;;7.85;5.05;;;19.70;99.90;;;19.72;62.42;99242.47;5091702;27;20039;-78
2022/09/21 07:39:38;;;;;;;7.10;4.97;;;19.60;99.90;;;19.77;62.40;99236.00;5086709;27;20040;-78
2022/09/21 07:42:08;;;;;;;5.60;4.75;;;19.60;99.90;;;19.79;62.20;99244.72;5100864;27;20523;-78
2022/09/21 07:44:33;;;;;;;6.43;4.43;;;19.70;99.90;;;19.78;62.38;99247.81;5090956;27;20053;-78
2022/09/21 07:47:02;;;;;;;7.75;5.55;;;19.70;99.90;;;19.77;62.49;99238.75;5090811;28;20044;-78
2022/09/21 07:49:28;;;;;;;6.32;4.90;;;19.70;99.90;;;19.77;62.48;99248.94;5071370;27;20044;-78
2022/09/21 07:51:54;;;;;;;6.47;5.13;;;19.70;99.90;;;19.78;62.32;99250.56;5088278;27;20054;-78
2022/09/21 07:54:20;;;;;;;6.43;4.85;;;19.70;99.90;;;19.83;62.27;99259.47;5075315;28;20050;-78
2022/09/21 07:59:04;;;;;;;7.70;5.13;;;19.70;99.90;;;19.87;61.93;99254.09;5087250;28;20081;-78
2022/09/21 07:59:33;;;;;;;5.82;4.47;;;19.80;99.90;;;19.90;61.87;99245.22;5082675;27;20047;-78
2022/09/21 08:02:01;;;;;;;6.00;4.93;;;19.80;99.90;;;19.94;61.80;99255.25;5091959;27;20103;-78
2022/09/21 08:04:27;;;;;;;5.75;4.45;;;19.80;99.90;;;19.91;61.76;99250.38;5072857;28;20040;-78
2022/09/21 08:06:53;;;;;;;6.53;4.85;;;19.80;99.90;;;19.93;61.97;99253.63;5106359;27;20414;-78
2022/09/21 08:09:19;;;;;;;7.32;4.15;;;19.80;99.90;;;19.97;61.41;99250.22;5089074;28;20042;-78
2022/09/21 08:11:45;;;;;;;6.95;4.55;;;19.90;99.90;;;19.98;61.75;99254.63;5074491;27;20109;-78
2022/09/21 08:14:18;;;;;;;5.93;4.28;;;19.90;99.90;;;19.96;61.80;99265.94;5087681;27;20399;-78
2022/09/21 08:16:45;;;;;;;6.07;4.07;;;19.90;99.90;;;19.95;61.82;99261.56;5102714;28;20625;-78
2022/09/21 08:19:13;;;;;;;6.95;4.65;;;19.90;99.90;;;19.94;62.15;99262.69;5058324;27;20035;-78
2022/09/21 08:21:39;;;;;;;5.50;4.30;;;19.90;99.90;;;19.95;61.86;99267.88;5090863;27;20074;-79
2022/09/21 08:24:05;;;;;;;5.05;4.55;;;19.90;99.90;;;19.90;61.93;99262.53;5075214;27;20057;-79
2022/09/21 08:26:32;;;;;;;9.48;4.65;;;19.90;99.90;;;19.90;61.85;99270.81;5087946;28;20046;-79
2022/09/21 08:28:58;;;;;;;8.32;4.47;;;19.90;99.90;;;19.88;62.10;99266.75;5084593;28;20127;-79
2022/09/21 08:31:25;;;;;;;5.85;4.13;;;19.90;99.90;;;19.89;62.40;99274.66;5084662;28;20108;-79
2022/09/21 08:33:52;;;;;;;6.88;4.82;;;19.90;99.90;;;19.89;62.17;99273.88;5107225;28;20401;-79
2022/09/21 08:36:18;;;;;;;6.25;4.43;;;19.90;99.90;;;19.95;62.32;99272.59;5071654;28;20619;-79
2022/09/21 08:38:44;;;;;;;4.75;4.13;;;20.00;99.90;;;19.95;62.28;99275.34;5072884;28;20130;-79
2022/09/21 08:41:52;;;;;;;7.13;4.45;;;20.00;99.90;;;19.99;61.85;99272.75;5089282;28;20044;-79
2022/09/21 08:44:46;;;;;;;4.72;4.10;;;20.00;99.90;;;20.04;61.80;99267.88;5099383;28;20036;-79
2022/09/21 08:47:16;;;;;;;7.60;5.03;;;20.00;99.90;;;20.08;61.56;99268.84;5084523;28;20059;-79
2022/09/21 08:49:48;;;;;;;6.85;4.32;;;20.00;99.90;;;20.12;61.23;99260.72;5089366;28;20091;-79
2022/09/21 08:52:15;;;;;;;4.88;4.32;;;20.00;99.90;;;20.17;61.08;99268.81;5071368;28;20110;-79
2022/09/21 08:54:43;;;;;;;4.65;3.97;;;20.10;99.90;;;20.21;60.98;99269.00;5067284;28;20105;-79
2022/09/21 08:57:13;;;;;;;6.75;4.72;;;20.10;99.90;;;20.23;60.52;99261.22;5088311;28;20406;-79
2022/09/21 08:59:45;;;;;;;5.72;4.13;;;20.10;99.90;;;20.22;60.77;99265.91;5086322;28;20463;-79
2022/09/21 09:02:39;;;;;;;6.20;4.65;;;20.10;99.90;;;20.22;60.73;99270.59;5066427;28;20066;-78
2022/09/21 09:05:47;;;;;;;5.88;4.47;;;20.10;99.90;;;20.17;61.09;99264.16;5089433;28;20547;-78
2022/09/21 09:08:39;;;;;;;9.15;4.30;;;20.10;99.90;;;20.20;60.53;99272.88;5102060;28;20119;-78
2022/09/21 09:11:47;;;;;;;6.13;4.05;;;20.10;99.90;;;20.23;60.83;99272.25;5087043;28;20043;-78
2022/09/21 09:14:34;;;;;;;6.18;3.65;;;20.20;99.90;;;20.21;60.94;99263.50;5062485;28;20188;-78
2022/09/21 09:17:26;;;;;;;5.55;3.75;;;20.20;99.90;;;20.21;61.08;99263.50;5101730;28;20040;-78
2022/09/21 09:20:03;;;;;;;7.28;4.07;;;20.20;99.90;;;20.19;60.93;99260.25;5090004;28;20117;-78
2022/09/21 09:22:39;;;;;;;4.03;3.58;;;20.20;99.90;;;20.20;61.01;99278.38;5087547;28;20040;-78
2022/09/21 09:25:21;;;;;;;3.97;3.45;;;20.20;99.90;;;20.22;60.96;99265.09;5075167;28;20467;-78
2022/09/21 09:27:56;;;;;;;4.43;3.92;;;20.30;99.90;;;20.23;60.82;99266.75;5076977;27;20123;-79
2022/09/21 09:30:29;;;;;;;6.95;3.80;;;20.20;99.90;;;20.27;60.65;99271.25;5076879;27;20566;-79
2022/09/21 09:33:18;;;;;;;5.60;3.65;;;20.20;99.90;;;20.29;60.77;99276.44;5076936;27;20126;-79
2022/09/21 09:35:51;;;;;;;5.18;3.25;;;20.30;99.90;;;20.29;60.57;99263.47;5091666;28;20044;-79
2022/09/21 09:38:39;;;;;;;4.55;3.85;;;20.30;99.90;;;20.29;60.60;99263.47;5108496;27;20280;-79
2022/09/21 09:41:30;;;;;;;6.20;3.83;;;20.30;99.90;;;20.29;60.74;99271.72;5075892;27;20041;-79
2022/09/21 09:44:10;;;;;;;5.18;3.78;;;20.30;99.90;;;20.34;60.32;99262.50;5105199;27;20044;-79
2022/09/21 09:47:20;;;;;;;3.85;3.47;;;20.30;99.90;;;20.37;60.27;99261.84;5108309;27;20435;-79
2022/09/21 09:50:23;;;;;;;3.97;3.45;;;20.30;99.90;;;20.39;60.22;99262.31;5075922;27;20079;-79
2022/09/21 09:52:53;;;;;;;4.43;3.40;;;20.40;99.90;;;20.44;60.01;99266.84;5062047;28;20123;-79
2022/09/21 09:55:29;;;;;;;6.07;3.90;;;20.40;99.90;;;20.42;60.07;99269.91;5089343;27;20047;-79
2022/09/21 09:57:55;;;;;;;5.55;3.35;;;20.40;99.90;;;20.37;60.38;99270.91;5073832;28;20554;-79
2022/09/21 10:00:21;;;;;;;5.13;3.58;;;20.40;99.90;;;20.40;60.06;99272.19;5074738;28;20073;-79
2022/09/21 10:02:53;;;;;;;5.05;3.63;;;20.40;99.90;;;20.41;59.90;99273.81;5090650;28;20048;-79
2022/09/21 10:05:34;;;;;;;4.97;3.95;;;20.40;99.90;;;20.43;60.01;99274.31;5092014;27;20128;-79
2022/09/21 10:08:00;;;;;;;4.43;3.40;;;20.40;99.90;;;20.38;60.24;99274.50;5075216;28;20040;-79
2022/09/21 10:10:35;;;;;;;6.00;4.35;;;20.40;99.90;;;20.36;60.25;99277.56;5102317;27;20047;-78
2022/09/21 10:13:28;;;;;;;6.30;4.22;;;20.40;99.90;;;20.36;60.44;99265.72;5105655;27;20547;-78
2022/09/21 10:16:12;;;;;;;5.43;3.90;;;20.40;99.90;;;20.37;60.47;99270.91;5106731;27;20044;-78
2022/09/21 10:19:00;;;;;;;5.50;3.53;;;20.40;99.90;;;20.39;60.11;99271.38;5092969;27;20483;-79
2022/09/21 10:21:42;;;;;;;4.35;3.42;;;20.50;99.90;;;20.41;60.09;99273.81;5105122;27;20039;-79
2022/09/21 10:24:32;;;;;;;4.28;3.42;;;20.50;99.90;;;20.39;60.20;99274.16;5065427;27;20055;-79
2022/09/21 10:27:10;;;;;;;4.43;3.70;;;20.50;99.90;;;20.45;59.94;99271.22;5105869;27;20466;-79
2022/09/21 10:29:45;;;;;;;4.40;3.40;;;20.50;99.90;;;20.49;59.62;99269.44;5092251;28;20070;-79
2022/09/21 10:32:11;;;;;;;5.22;4.18;;;20.50;99.90;;;20.53;59.50;99271.22;5074452;28;20119;-79
2022/09/21 10:34:38;;;;;;;5.22;4.10;;;20.50;99.90;;;20.53;59.49;99273.97;5103864;27;20162;-79
2022/09/21 10:37:45;;;;;;;4.20;3.13;;;20.50;99.90;;;20.58;59.65;99271.06;5072442;28;20066;-79
2022/09/21 10:40:19;;;;;;;4.38;3.28;;;20.60;99.90;;;20.55;59.58;99274.44;5028140;28;20045;-79
2022/09/21 10:42:58;;;;;;;4.20;2.67;;;20.50;99.90;;;20.55;59.57;99274.44;5048052;28;20167;-79